Holdenville, Oklahoma
Current Conditions -  °F | °C
As of 9:35 PM on Friday 28 Nov 2014 (Local Time) from KADH Reporting Station
Clear Clear  
Wind Chill: 55°   Ceiling: Unl
Heat Index: 55°   Visibility: 10mi
Dew Point: 50°   Wind: 12mph
Humidity: 82%   Direction: 180°S
Pressure: 29.91"   Gusts: NA
Location:  35.08°N, 96.4°W
Report Text: KADH 290335Z AUTO 18010KT 10SM CLR 13/10 A2991 RMK AO2
Loading
Personal Weather Stations






























Interactive Weather Map New forecast layout! Learn more

10-Day Weather Forecast

Advertisements
Track Severe Weather on mobile